sensor_id;sensor_type;location;lat;lon;timestamp;temperature;humidity
39045;DHT22;52192;52.002;5.956;2023-02-28T00:00:46;4.50;64.90
39045;DHT22;52192;52.002;5.956;2023-02-28T00:03:12;4.60;64.90
39045;DHT22;52192;52.002;5.956;2023-02-28T00:05:38;4.70;64.90
39045;DHT22;52192;52.002;5.956;2023-02-28T00:08:03;4.70;64.80
39045;DHT22;52192;52.002;5.956;2023-02-28T00:10:31;4.80;64.90
39045;DHT22;52192;52.002;5.956;2023-02-28T00:13:03;4.80;64.80
39045;DHT22;52192;52.002;5.956;2023-02-28T00:15:30;4.90;64.70
39045;DHT22;52192;52.002;5.956;2023-02-28T00:17:56;5.00;64.90
39045;DHT22;52192;52.002;5.956;2023-02-28T00:20:22;5.00;65.10
39045;DHT22;52192;52.002;5.956;2023-02-28T00:22:50;5.00;65.10
39045;DHT22;52192;52.002;5.956;2023-02-28T00:25:21;5.00;65.10
39045;DHT22;52192;52.002;5.956;2023-02-28T00:27:47;5.10;65.00
39045;DHT22;52192;52.002;5.956;2023-02-28T00:30:21;5.10;64.90
39045;DHT22;52192;52.002;5.956;2023-02-28T00:32:48;5.10;65.00
39045;DHT22;52192;52.002;5.956;2023-02-28T00:35:14;5.10;65.10
39045;DHT22;52192;52.002;5.956;2023-02-28T00:37:40;5.10;65.00
39045;DHT22;52192;52.002;5.956;2023-02-28T00:40:07;5.10;65.10
39045;DHT22;52192;52.002;5.956;2023-02-28T00:42:34;5.20;65.00
39045;DHT22;52192;52.002;5.956;2023-02-28T00:45:00;5.20;65.00
39045;DHT22;52192;52.002;5.956;2023-02-28T00:47:26;5.20;65.00
39045;DHT22;52192;52.002;5.956;2023-02-28T00:49:52;5.30;65.00
39045;DHT22;52192;52.002;5.956;2023-02-28T00:52:18;5.30;64.90
39045;DHT22;52192;52.002;5.956;2023-02-28T00:54:43;5.30;64.90
39045;DHT22;52192;52.002;5.956;2023-02-28T00:57:09;5.30;65.00
39045;DHT22;52192;52.002;5.956;2023-02-28T00:59:35;5.30;65.00
39045;DHT22;52192;52.002;5.956;2023-02-28T01:02:00;5.30;65.10
39045;DHT22;52192;52.002;5.956;2023-02-28T01:04:26;5.30;65.10
39045;DHT22;52192;52.002;5.956;2023-02-28T01:06:52;5.40;65.10
39045;DHT22;52192;52.002;5.956;2023-02-28T01:09:18;5.40;65.00
39045;DHT22;52192;52.002;5.956;2023-02-28T01:11:43;5.40;65.20
39045;DHT22;52192;52.002;5.956;2023-02-28T01:14:12;5.40;65.20
39045;DHT22;52192;52.002;5.956;2023-02-28T01:16:38;5.40;65.20
39045;DHT22;52192;52.002;5.956;2023-02-28T01:19:04;5.40;65.40
39045;DHT22;52192;52.002;5.956;2023-02-28T01:21:30;5.40;65.30
39045;DHT22;52192;52.002;5.956;2023-02-28T01:23:57;5.40;65.90
39045;DHT22;52192;52.002;5.956;2023-02-28T01:26:23;5.40;65.40
39045;DHT22;52192;52.002;5.956;2023-02-28T01:28:50;5.30;65.30
39045;DHT22;52192;52.002;5.956;2023-02-28T01:31:16;5.30;65.30
39045;DHT22;52192;52.002;5.956;2023-02-28T01:33:43;5.30;65.30
39045;DHT22;52192;52.002;5.956;2023-02-28T01:36:12;5.30;65.40
39045;DHT22;52192;52.002;5.956;2023-02-28T01:38:39;5.40;65.50
39045;DHT22;52192;52.002;5.956;2023-02-28T01:41:06;5.40;65.40
39045;DHT22;52192;52.002;5.956;2023-02-28T01:43:53;5.40;65.30
39045;DHT22;52192;52.002;5.956;2023-02-28T01:46:19;5.40;65.30
39045;DHT22;52192;52.002;5.956;2023-02-28T01:48:51;5.30;65.40
39045;DHT22;52192;52.002;5.956;2023-02-28T01:51:26;5.30;65.50
39045;DHT22;52192;52.002;5.956;2023-02-28T01:53:59;5.40;65.60
39045;DHT22;52192;52.002;5.956;2023-02-28T01:56:29;5.30;65.50
39045;DHT22;52192;52.002;5.956;2023-02-28T01:58:56;5.30;65.40
39045;DHT22;52192;52.002;5.956;2023-02-28T02:01:24;5.30;66.30
39045;DHT22;52192;52.002;5.956;2023-02-28T02:03:58;5.30;65.70
39045;DHT22;52192;52.002;5.956;2023-02-28T02:06:44;5.30;65.70
39045;DHT22;52192;52.002;5.956;2023-02-28T02:09:11;5.30;65.80
39045;DHT22;52192;52.002;5.956;2023-02-28T02:11:39;5.20;65.90
39045;DHT22;52192;52.002;5.956;2023-02-28T02:17:10;5.30;66.00
39045;DHT22;52192;52.002;5.956;2023-02-28T02:23:33;5.30;66.10
39045;DHT22;52192;52.002;5.956;2023-02-28T02:35:14;5.30;66.00
39045;DHT22;52192;52.002;5.956;2023-02-28T02:37:51;5.30;65.80
39045;DHT22;52192;52.002;5.956;2023-02-28T02:40:22;5.30;65.70
39045;DHT22;52192;52.002;5.956;2023-02-28T02:48:02;5.30;65.00
39045;DHT22;52192;52.002;5.956;2023-02-28T02:50:43;5.30;64.90
39045;DHT22;52192;52.002;5.956;2023-02-28T02:53:11;5.30;64.80
39045;DHT22;52192;52.002;5.956;2023-02-28T02:55:41;5.30;64.70
39045;DHT22;52192;52.002;5.956;2023-02-28T02:58:12;5.40;64.60
39045;DHT22;52192;52.002;5.956;2023-02-28T03:00:43;5.40;64.60
39045;DHT22;52192;52.002;5.956;2023-02-28T03:03:12;5.40;64.50
39045;DHT22;52192;52.002;5.956;2023-02-28T03:05:46;5.40;64.40
39045;DHT22;52192;52.002;5.956;2023-02-28T03:08:12;5.40;64.20
39045;DHT22;52192;52.002;5.956;2023-02-28T03:10:40;5.30;64.20
39045;DHT22;52192;52.002;5.956;2023-02-28T03:13:37;5.40;64.30
39045;DHT22;52192;52.002;5.956;2023-02-28T03:16:29;5.40;64.00
39045;DHT22;52192;52.002;5.956;2023-02-28T03:24:45;5.40;63.60
39045;DHT22;52192;52.002;5.956;2023-02-28T03:27:18;5.30;63.60
39045;DHT22;52192;52.002;5.956;2023-02-28T03:29:51;5.30;63.60
39045;DHT22;52192;52.002;5.956;2023-02-28T03:32:34;5.30;63.60
39045;DHT22;52192;52.002;5.956;2023-02-28T03:35:10;5.40;63.50
39045;DHT22;52192;52.002;5.956;2023-02-28T03:37:41;5.30;63.40
39045;DHT22;52192;52.002;5.956;2023-02-28T03:40:14;5.30;63.20
39045;DHT22;52192;52.002;5.956;2023-02-28T03:42:45;5.30;63.10
39045;DHT22;52192;52.002;5.956;2023-02-28T03:45:19;5.30;63.20
39045;DHT22;52192;52.002;5.956;2023-02-28T03:50:24;5.30;63.30
39045;DHT22;52192;52.002;5.956;2023-02-28T03:56:05;5.40;63.20
39045;DHT22;52192;52.002;5.956;2023-02-28T04:01:48;5.40;62.80
39045;DHT22;52192;52.002;5.956;2023-02-28T04:04:14;5.30;62.80
39045;DHT22;52192;52.002;5.956;2023-02-28T04:06:41;5.30;62.80
39045;DHT22;52192;52.002;5.956;2023-02-28T04:09:10;5.30;62.80
39045;DHT22;52192;52.002;5.956;2023-02-28T04:11:38;5.30;63.00
39045;DHT22;52192;52.002;5.956;2023-02-28T04:14:06;5.30;63.10
39045;DHT22;52192;52.002;5.956;2023-02-28T04:16:34;5.30;63.20
39045;DHT22;52192;52.002;5.956;2023-02-28T04:19:00;5.30;63.00
39045;DHT22;52192;52.002;5.956;2023-02-28T04:21:45;5.20;63.10
39045;DHT22;52192;52.002;5.956;2023-02-28T04:24:17;5.20;63.10
39045;DHT22;52192;52.002;5.956;2023-02-28T04:26:45;5.20;63.20
39045;DHT22;52192;52.002;5.956;2023-02-28T04:29:13;5.20;63.30
39045;DHT22;52192;52.002;5.956;2023-02-28T04:31:40;5.20;62.70
39045;DHT22;52192;52.002;5.956;2023-02-28T04:34:06;5.20;62.60
39045;DHT22;52192;52.002;5.956;2023-02-28T04:36:32;5.20;62.80
39045;DHT22;52192;52.002;5.956;2023-02-28T04:38:58;5.20;62.90
39045;DHT22;52192;52.002;5.956;2023-02-28T04:41:24;5.20;63.10
39045;DHT22;52192;52.002;5.956;2023-02-28T04:43:51;5.20;63.00
39045;DHT22;52192;52.002;5.956;2023-02-28T04:46:18;5.20;63.00
39045;DHT22;52192;52.002;5.956;2023-02-28T04:48:44;5.20;62.70
39045;DHT22;52192;52.002;5.956;2023-02-28T04:51:11;5.10;62.20
39045;DHT22;52192;52.002;5.956;2023-02-28T04:53:38;5.10;62.00
39045;DHT22;52192;52.002;5.956;2023-02-28T04:56:05;5.10;62.00
39045;DHT22;52192;52.002;5.956;2023-02-28T04:58:32;5.10;62.10
39045;DHT22;52192;52.002;5.956;2023-02-28T05:01:06;5.10;62.30
39045;DHT22;52192;52.002;5.956;2023-02-28T05:03:41;5.10;62.50
39045;DHT22;52192;52.002;5.956;2023-02-28T05:06:11;5.10;62.70
39045;DHT22;52192;52.002;5.956;2023-02-28T05:08:37;5.10;62.80
39045;DHT22;52192;52.002;5.956;2023-02-28T05:11:03;5.10;62.80
39045;DHT22;52192;52.002;5.956;2023-02-28T05:13:29;5.10;62.50
39045;DHT22;52192;52.002;5.956;2023-02-28T05:15:55;5.10;62.20
39045;DHT22;52192;52.002;5.956;2023-02-28T05:18:21;5.10;62.30
39045;DHT22;52192;52.002;5.956;2023-02-28T05:20:47;5.10;62.60
39045;DHT22;52192;52.002;5.956;2023-02-28T05:23:13;5.00;62.60
39045;DHT22;52192;52.002;5.956;2023-02-28T05:25:40;5.00;62.70
39045;DHT22;52192;52.002;5.956;2023-02-28T05:28:06;5.00;62.80
39045;DHT22;52192;52.002;5.956;2023-02-28T05:30:32;5.00;63.00
39045;DHT22;52192;52.002;5.956;2023-02-28T05:32:58;5.00;62.90
39045;DHT22;52192;52.002;5.956;2023-02-28T05:35:25;5.00;63.00
39045;DHT22;52192;52.002;5.956;2023-02-28T05:37:51;5.00;63.00
39045;DHT22;52192;52.002;5.956;2023-02-28T05:40:17;5.00;63.20
39045;DHT22;52192;52.002;5.956;2023-02-28T05:42:45;5.00;63.20
39045;DHT22;52192;52.002;5.956;2023-02-28T05:45:11;4.90;63.10
39045;DHT22;52192;52.002;5.956;2023-02-28T05:47:37;5.00;63.40
39045;DHT22;52192;52.002;5.956;2023-02-28T05:50:04;5.00;63.20
39045;DHT22;52192;52.002;5.956;2023-02-28T05:52:30;5.00;63.20
39045;DHT22;52192;52.002;5.956;2023-02-28T05:54:55;5.00;63.10
39045;DHT22;52192;52.002;5.956;2023-02-28T05:57:22;5.00;62.80
39045;DHT22;52192;52.002;5.956;2023-02-28T05:59:48;5.00;62.90
39045;DHT22;52192;52.002;5.956;2023-02-28T06:02:16;5.00;63.20
39045;DHT22;52192;52.002;5.956;2023-02-28T06:04:42;5.00;63.00
39045;DHT22;52192;52.002;5.956;2023-02-28T06:07:09;5.00;63.20
39045;DHT22;52192;52.002;5.956;2023-02-28T06:09:35;5.00;63.20
39045;DHT22;52192;52.002;5.956;2023-02-28T06:12:02;5.00;63.00
39045;DHT22;52192;52.002;5.956;2023-02-28T06:14:31;5.00;63.00
39045;DHT22;52192;52.002;5.956;2023-02-28T06:17:01;5.00;63.40
39045;DHT22;52192;52.002;5.956;2023-02-28T06:19:27;4.90;63.40
39045;DHT22;52192;52.002;5.956;2023-02-28T06:21:53;5.00;63.20
39045;DHT22;52192;52.002;5.956;2023-02-28T06:24:20;4.90;63.20
39045;DHT22;52192;52.002;5.956;2023-02-28T06:26:46;4.90;63.00
39045;DHT22;52192;52.002;5.956;2023-02-28T06:29:12;4.90;63.00
39045;DHT22;52192;52.002;5.956;2023-02-28T06:31:42;5.00;63.20
39045;DHT22;52192;52.002;5.956;2023-02-28T06:34:09;5.00;63.40
39045;DHT22;52192;52.002;5.956;2023-02-28T06:36:40;5.00;63.50
39045;DHT22;52192;52.002;5.956;2023-02-28T06:39:06;5.10;63.40
39045;DHT22;52192;52.002;5.956;2023-02-28T06:41:31;5.10;63.30
39045;DHT22;52192;52.002;5.956;2023-02-28T06:43:59;5.10;63.40
39045;DHT22;52192;52.002;5.956;2023-02-28T06:46:24;5.10;63.40
39045;DHT22;52192;52.002;5.956;2023-02-28T06:48:50;5.10;63.30
39045;DHT22;52192;52.002;5.956;2023-02-28T06:51:20;5.10;63.50
39045;DHT22;52192;52.002;5.956;2023-02-28T06:53:47;5.10;63.30
39045;DHT22;52192;52.002;5.956;2023-02-28T06:56:15;5.10;63.10
39045;DHT22;52192;52.002;5.956;2023-02-28T06:58:41;5.10;62.90
39045;DHT22;52192;52.002;5.956;2023-02-28T07:01:08;5.10;62.80
39045;DHT22;52192;52.002;5.956;2023-02-28T07:03:35;5.20;62.70
39045;DHT22;52192;52.002;5.956;2023-02-28T07:06:01;5.20;62.50
39045;DHT22;52192;52.002;5.956;2023-02-28T07:08:28;5.30;62.30
39045;DHT22;52192;52.002;5.956;2023-02-28T07:10:55;5.30;62.20
39045;DHT22;52192;52.002;5.956;2023-02-28T07:13:21;5.30;62.10
39045;DHT22;52192;52.002;5.956;2023-02-28T07:16:01;5.40;62.00
39045;DHT22;52192;52.002;5.956;2023-02-28T07:18:27;5.40;61.80
39045;DHT22;52192;52.002;5.956;2023-02-28T07:20:54;5.40;61.60
39045;DHT22;52192;52.002;5.956;2023-02-28T07:23:20;5.40;61.10
39045;DHT22;52192;52.002;5.956;2023-02-28T07:25:46;5.30;60.90
39045;DHT22;52192;52.002;5.956;2023-02-28T07:28:13;5.30;61.00
39045;DHT22;52192;52.002;5.956;2023-02-28T07:30:40;5.30;60.90
39045;DHT22;52192;52.002;5.956;2023-02-28T07:33:05;5.20;60.80
39045;DHT22;52192;52.002;5.956;2023-02-28T07:35:31;5.30;60.80
39045;DHT22;52192;52.002;5.956;2023-02-28T07:37:58;5.30;60.60
39045;DHT22;52192;52.002;5.956;2023-02-28T07:40:24;5.30;60.40
39045;DHT22;52192;52.002;5.956;2023-02-28T07:42:50;5.30;60.10
39045;DHT22;52192;52.002;5.956;2023-02-28T07:45:16;5.40;59.90
39045;DHT22;52192;52.002;5.956;2023-02-28T07:47:43;5.40;59.80
39045;DHT22;52192;52.002;5.956;2023-02-28T07:50:10;5.50;59.80
39045;DHT22;52192;52.002;5.956;2023-02-28T07:52:37;5.50;59.70
39045;DHT22;52192;52.002;5.956;2023-02-28T07:55:04;5.60;59.60
39045;DHT22;52192;52.002;5.956;2023-02-28T07:57:31;5.60;59.40
39045;DHT22;52192;52.002;5.956;2023-02-28T07:59:57;5.60;59.30
39045;DHT22;52192;52.002;5.956;2023-02-28T08:02:23;5.70;59.30
39045;DHT22;52192;52.002;5.956;2023-02-28T08:04:48;5.70;59.10
39045;DHT22;52192;52.002;5.956;2023-02-28T08:07:15;5.70;58.60
39045;DHT22;52192;52.002;5.956;2023-02-28T08:09:42;5.70;58.60
39045;DHT22;52192;52.002;5.956;2023-02-28T08:12:09;5.70;58.20
39045;DHT22;52192;52.002;5.956;2023-02-28T08:14:35;5.70;58.10
39045;DHT22;52192;52.002;5.956;2023-02-28T08:17:00;5.70;58.20
39045;DHT22;52192;52.002;5.956;2023-02-28T08:19:27;5.70;58.00
39045;DHT22;52192;52.002;5.956;2023-02-28T08:21:52;5.70;57.50
39045;DHT22;52192;52.002;5.956;2023-02-28T08:24:18;5.80;57.30
39045;DHT22;52192;52.002;5.956;2023-02-28T08:26:44;5.80;56.60
39045;DHT22;52192;52.002;5.956;2023-02-28T08:29:09;5.90;56.00
39045;DHT22;52192;52.002;5.956;2023-02-28T08:31:35;5.90;55.70
39045;DHT22;52192;52.002;5.956;2023-02-28T08:34:12;5.90;55.60
39045;DHT22;52192;52.002;5.956;2023-02-28T08:36:39;5.90;55.20
39045;DHT22;52192;52.002;5.956;2023-02-28T08:39:05;6.00;54.20
39045;DHT22;52192;52.002;5.956;2023-02-28T08:41:31;6.00;53.70
39045;DHT22;52192;52.002;5.956;2023-02-28T08:43:57;6.10;53.50
39045;DHT22;52192;52.002;5.956;2023-02-28T08:46:23;6.10;53.50
39045;DHT22;52192;52.002;5.956;2023-02-28T08:48:54;6.20;53.60
39045;DHT22;52192;52.002;5.956;2023-02-28T08:51:20;6.30;53.00
39045;DHT22;52192;52.002;5.956;2023-02-28T08:53:57;6.30;52.50
39045;DHT22;52192;52.002;5.956;2023-02-28T08:56:23;6.40;52.60
39045;DHT22;52192;52.002;5.956;2023-02-28T08:58:50;6.40;52.40
39045;DHT22;52192;52.002;5.956;2023-02-28T09:01:27;6.50;52.20
39045;DHT22;52192;52.002;5.956;2023-02-28T09:03:54;6.60;51.50
39045;DHT22;52192;52.002;5.956;2023-02-28T09:06:22;6.60;51.60
39045;DHT22;52192;52.002;5.956;2023-02-28T09:08:48;6.70;51.10
39045;DHT22;52192;52.002;5.956;2023-02-28T09:11:15;6.70;51.40
39045;DHT22;52192;52.002;5.956;2023-02-28T09:13:41;6.80;51.50
39045;DHT22;52192;52.002;5.956;2023-02-28T09:16:09;7.00;50.70
39045;DHT22;52192;52.002;5.956;2023-02-28T09:18:37;7.10;50.20
39045;DHT22;52192;52.002;5.956;2023-02-28T09:21:08;7.20;50.10
39045;DHT22;52192;52.002;5.956;2023-02-28T09:23:35;7.30;50.50
39045;DHT22;52192;52.002;5.956;2023-02-28T09:26:01;7.30;47.90
39045;DHT22;52192;52.002;5.956;2023-02-28T09:28:26;7.40;48.40
39045;DHT22;52192;52.002;5.956;2023-02-28T09:30:53;7.50;47.60
39045;DHT22;52192;52.002;5.956;2023-02-28T09:33:20;7.60;47.70
39045;DHT22;52192;52.002;5.956;2023-02-28T09:35:47;7.80;46.70
39045;DHT22;52192;52.002;5.956;2023-02-28T09:38:14;7.90;46.50
39045;DHT22;52192;52.002;5.956;2023-02-28T09:40:47;8.00;46.40
39045;DHT22;52192;52.002;5.956;2023-02-28T09:43:15;8.10;46.60
39045;DHT22;52192;52.002;5.956;2023-02-28T09:48:47;8.20;45.70
39045;DHT22;52192;52.002;5.956;2023-02-28T09:54:17;8.40;45.30
39045;DHT22;52192;52.002;5.956;2023-02-28T09:57:07;8.40;45.20
39045;DHT22;52192;52.002;5.956;2023-02-28T09:59:51;8.50;44.70
39045;DHT22;52192;52.002;5.956;2023-02-28T10:02:38;8.60;44.70
39045;DHT22;52192;52.002;5.956;2023-02-28T10:05:19;8.70;44.30
39045;DHT22;52192;52.002;5.956;2023-02-28T10:13:02;9.00;44.00
39045;DHT22;52192;52.002;5.956;2023-02-28T10:15:31;9.10;43.80
39045;DHT22;52192;52.002;5.956;2023-02-28T10:18:02;9.20;43.60
39045;DHT22;52192;52.002;5.956;2023-02-28T10:20:32;9.30;43.20
39045;DHT22;52192;52.002;5.956;2023-02-28T10:23:34;9.40;43.10
39045;DHT22;52192;52.002;5.956;2023-02-28T10:26:10;9.50;42.90
39045;DHT22;52192;52.002;5.956;2023-02-28T10:28:37;9.50;42.00
39045;DHT22;52192;52.002;5.956;2023-02-28T10:31:03;9.50;42.30
39045;DHT22;52192;52.002;5.956;2023-02-28T10:33:34;9.60;41.80
39045;DHT22;52192;52.002;5.956;2023-02-28T10:36:01;9.70;42.00
39045;DHT22;52192;52.002;5.956;2023-02-28T10:38:37;9.70;41.60
39045;DHT22;52192;52.002;5.956;2023-02-28T10:41:14;9.80;41.70
39045;DHT22;52192;52.002;5.956;2023-02-28T10:43:42;10.00;41.30
39045;DHT22;52192;52.002;5.956;2023-02-28T10:48:37;10.40;40.60
39045;DHT22;52192;52.002;5.956;2023-02-28T10:51:05;10.50;40.20
39045;DHT22;52192;52.002;5.956;2023-02-28T10:56:17;10.60;39.70
39045;DHT22;52192;52.002;5.956;2023-02-28T11:01:48;10.80;39.10
39045;DHT22;52192;52.002;5.956;2023-02-28T11:06:59;10.90;39.40
39045;DHT22;52192;52.002;5.956;2023-02-28T11:09:36;11.10;39.20
39045;DHT22;52192;52.002;5.956;2023-02-28T11:12:18;11.30;38.90
39045;DHT22;52192;52.002;5.956;2023-02-28T11:14:55;11.50;38.90
39045;DHT22;52192;52.002;5.956;2023-02-28T11:17:28;11.60;39.00
39045;DHT22;52192;52.002;5.956;2023-02-28T11:19:57;11.80;38.50
39045;DHT22;52192;52.002;5.956;2023-02-28T11:22:28;11.90;38.40
39045;DHT22;52192;52.002;5.956;2023-02-28T11:24:57;12.00;38.00
39045;DHT22;52192;52.002;5.956;2023-02-28T11:29:55;12.10;37.30
39045;DHT22;52192;52.002;5.956;2023-02-28T11:32:23;12.20;37.20
39045;DHT22;52192;52.002;5.956;2023-02-28T11:37:35;12.20;36.70
39045;DHT22;52192;52.002;5.956;2023-02-28T11:40:02;12.20;36.50
39045;DHT22;52192;52.002;5.956;2023-02-28T11:42:53;12.30;36.10
39045;DHT22;52192;52.002;5.956;2023-02-28T11:48:43;12.50;36.30
39045;DHT22;52192;52.002;5.956;2023-02-28T11:51:26;12.60;36.00
39045;DHT22;52192;52.002;5.956;2023-02-28T12:08:56;13.20;34.90
39045;DHT22;52192;52.002;5.956;2023-02-28T12:19:26;13.10;33.70
39045;DHT22;52192;52.002;5.956;2023-02-28T12:27:29;13.00;33.90
39045;DHT22;52192;52.002;5.956;2023-02-28T12:30:04;13.20;34.00
39045;DHT22;52192;52.002;5.956;2023-02-28T12:32:42;13.30;33.30
39045;DHT22;52192;52.002;5.956;2023-02-28T12:37:38;13.40;33.10
39045;DHT22;52192;52.002;5.956;2023-02-28T12:40:27;13.50;32.40
39045;DHT22;52192;52.002;5.956;2023-02-28T12:43:02;13.50;32.70
39045;DHT22;52192;52.002;5.956;2023-02-28T12:48:46;13.40;32.40
39045;DHT22;52192;52.002;5.956;2023-02-28T12:51:15;13.40;32.60
39045;DHT22;52192;52.002;5.956;2023-02-28T12:57:18;13.50;32.20
39045;DHT22;52192;52.002;5.956;2023-02-28T12:59:54;13.70;31.80
39045;DHT22;52192;52.002;5.956;2023-02-28T13:05:10;13.80;31.90
39045;DHT22;52192;52.002;5.956;2023-02-28T13:10:19;14.30;31.80
39045;DHT22;52192;52.002;5.956;2023-02-28T13:12:52;14.80;31.40
39045;DHT22;52192;52.002;5.956;2023-02-28T13:15:23;15.40;30.80
39045;DHT22;52192;52.002;5.956;2023-02-28T13:17:54;16.30;29.60
39045;DHT22;52192;52.002;5.956;2023-02-28T13:20:34;17.20;28.70
39045;DHT22;52192;52.002;5.956;2023-02-28T13:23:00;18.10;28.30
39045;DHT22;52192;52.002;5.956;2023-02-28T13:28:08;20.30;26.80
39045;DHT22;52192;52.002;5.956;2023-02-28T13:33:23;21.20;25.90
39045;DHT22;52192;52.002;5.956;2023-02-28T13:36:08;21.50;25.70
39045;DHT22;52192;52.002;5.956;2023-02-28T13:38:40;22.50;25.40
39045;DHT22;52192;52.002;5.956;2023-02-28T13:44:22;23.80;24.60
39045;DHT22;52192;52.002;5.956;2023-02-28T13:57:42;27.20;22.90
39045;DHT22;52192;52.002;5.956;2023-02-28T14:00:41;27.50;22.60
39045;DHT22;52192;52.002;5.956;2023-02-28T14:03:17;27.70;22.40
39045;DHT22;52192;52.002;5.956;2023-02-28T14:08:52;28.30;22.20
39045;DHT22;52192;52.002;5.956;2023-02-28T14:13:55;28.70;21.90
39045;DHT22;52192;52.002;5.956;2023-02-28T14:16:23;28.80;21.90
39045;DHT22;52192;52.002;5.956;2023-02-28T14:19:30;28.90;21.80
39045;DHT22;52192;52.002;5.956;2023-02-28T14:25:07;28.90;21.80
39045;DHT22;52192;52.002;5.956;2023-02-28T14:30:53;29.50;21.30
39045;DHT22;52192;52.002;5.956;2023-02-28T14:36:31;29.30;21.10
39045;DHT22;52192;52.002;5.956;2023-02-28T14:39:00;29.30;21.30
39045;DHT22;52192;52.002;5.956;2023-02-28T14:41:31;29.20;21.30
39045;DHT22;52192;52.002;5.956;2023-02-28T14:44:01;29.20;21.30
39045;DHT22;52192;52.002;5.956;2023-02-28T14:46:36;29.40;21.40
39045;DHT22;52192;52.002;5.956;2023-02-28T14:49:09;29.30;21.30
39045;DHT22;52192;52.002;5.956;2023-02-28T14:51:38;29.30;21.40
39045;DHT22;52192;52.002;5.956;2023-02-28T14:54:04;29.40;21.20
39045;DHT22;52192;52.002;5.956;2023-02-28T14:56:35;29.60;21.10
39045;DHT22;52192;52.002;5.956;2023-02-28T14:59:02;29.70;21.00
39045;DHT22;52192;52.002;5.956;2023-02-28T15:01:28;29.70;21.10
39045;DHT22;52192;52.002;5.956;2023-02-28T15:04:05;29.60;21.00
39045;DHT22;52192;52.002;5.956;2023-02-28T15:06:32;29.60;21.10
39045;DHT22;52192;52.002;5.956;2023-02-28T15:09:27;29.50;21.20
39045;DHT22;52192;52.002;5.956;2023-02-28T15:11:54;29.40;21.10
39045;DHT22;52192;52.002;5.956;2023-02-28T15:14:21;29.40;21.20
39045;DHT22;52192;52.002;5.956;2023-02-28T15:16:57;29.20;21.00
39045;DHT22;52192;52.002;5.956;2023-02-28T15:19:27;29.00;20.90
39045;DHT22;52192;52.002;5.956;2023-02-28T15:22:27;28.60;20.80
39045;DHT22;52192;52.002;5.956;2023-02-28T15:24:55;28.10;20.90
39045;DHT22;52192;52.002;5.956;2023-02-28T15:27:30;27.40;21.20
39045;DHT22;52192;52.002;5.956;2023-02-28T15:30:05;27.00;21.30
39045;DHT22;52192;52.002;5.956;2023-02-28T15:32:35;26.50;21.40
39045;DHT22;52192;52.002;5.956;2023-02-28T15:38:22;26.20;21.40
39045;DHT22;52192;52.002;5.956;2023-02-28T15:40:53;25.70;21.40
39045;DHT22;52192;52.002;5.956;2023-02-28T15:43:38;24.90;21.60
39045;DHT22;52192;52.002;5.956;2023-02-28T15:46:12;24.40;22.00
39045;DHT22;52192;52.002;5.956;2023-02-28T15:48:52;23.90;22.10
39045;DHT22;52192;52.002;5.956;2023-02-28T15:51:21;23.60;22.40
39045;DHT22;52192;52.002;5.956;2023-02-28T15:53:51;23.30;22.60
39045;DHT22;52192;52.002;5.956;2023-02-28T15:56:54;23.20;22.70
39045;DHT22;52192;52.002;5.956;2023-02-28T15:59:28;23.00;22.80
39045;DHT22;52192;52.002;5.956;2023-02-28T16:07:33;20.40;24.30
39045;DHT22;52192;52.002;5.956;2023-02-28T16:10:00;19.90;24.60
39045;DHT22;52192;52.002;5.956;2023-02-28T16:12:30;19.60;24.80
39045;DHT22;52192;52.002;5.956;2023-02-28T16:15:02;18.80;25.10
39045;DHT22;52192;52.002;5.956;2023-02-28T16:17:36;17.80;25.70
39045;DHT22;52192;52.002;5.956;2023-02-28T16:20:30;16.90;26.30
39045;DHT22;52192;52.002;5.956;2023-02-28T16:22:56;16.10;26.90
39045;DHT22;52192;52.002;5.956;2023-02-28T16:25:34;15.30;27.60
39045;DHT22;52192;52.002;5.956;2023-02-28T16:28:00;14.90;28.20
39045;DHT22;52192;52.002;5.956;2023-02-28T16:30:28;14.50;28.80
39045;DHT22;52192;52.002;5.956;2023-02-28T16:32:56;14.10;29.00
39045;DHT22;52192;52.002;5.956;2023-02-28T16:35:23;13.80;29.30
39045;DHT22;52192;52.002;5.956;2023-02-28T16:37:51;13.50;29.40
39045;DHT22;52192;52.002;5.956;2023-02-28T16:40:22;13.30;29.80
39045;DHT22;52192;52.002;5.956;2023-02-28T16:42:50;13.20;29.90
39045;DHT22;52192;52.002;5.956;2023-02-28T16:45:21;13.00;30.40
39045;DHT22;52192;52.002;5.956;2023-02-28T16:47:47;12.80;30.80
39045;DHT22;52192;52.002;5.956;2023-02-28T16:50:20;12.70;31.10
39045;DHT22;52192;52.002;5.956;2023-02-28T16:52:47;12.60;31.40
39045;DHT22;52192;52.002;5.956;2023-02-28T16:55:13;12.50;31.60
39045;DHT22;52192;52.002;5.956;2023-02-28T16:57:39;12.30;31.90
39045;DHT22;52192;52.002;5.956;2023-02-28T17:00:08;12.20;32.40
39045;DHT22;52192;52.002;5.956;2023-02-28T17:02:36;12.10;32.50
39045;DHT22;52192;52.002;5.956;2023-02-28T17:05:02;12.00;32.80
39045;DHT22;52192;52.002;5.956;2023-02-28T17:07:29;11.80;33.30
39045;DHT22;52192;52.002;5.956;2023-02-28T17:09:54;11.80;33.80
39045;DHT22;52192;52.002;5.956;2023-02-28T17:12:20;11.70;34.30
39045;DHT22;52192;52.002;5.956;2023-02-28T17:14:46;11.50;34.70
39045;DHT22;52192;52.002;5.956;2023-02-28T17:17:20;11.40;35.00
39045;DHT22;52192;52.002;5.956;2023-02-28T17:19:46;11.30;35.20
39045;DHT22;52192;52.002;5.956;2023-02-28T17:22:15;11.10;35.70
39045;DHT22;52192;52.002;5.956;2023-02-28T17:24:41;10.90;35.70
39045;DHT22;52192;52.002;5.956;2023-02-28T17:27:11;10.80;36.20
39045;DHT22;52192;52.002;5.956;2023-02-28T17:29:37;10.60;36.30
39045;DHT22;52192;52.002;5.956;2023-02-28T17:32:03;10.50;36.70
39045;DHT22;52192;52.002;5.956;2023-02-28T17:34:29;10.40;36.80
39045;DHT22;52192;52.002;5.956;2023-02-28T17:36:55;10.30;37.00
39045;DHT22;52192;52.002;5.956;2023-02-28T17:39:20;10.20;37.20
39045;DHT22;52192;52.002;5.956;2023-02-28T17:41:54;10.10;37.50
39045;DHT22;52192;52.002;5.956;2023-02-28T17:44:21;10.00;37.80
39045;DHT22;52192;52.002;5.956;2023-02-28T17:46:48;9.90;38.10
39045;DHT22;52192;52.002;5.956;2023-02-28T17:49:15;9.80;38.30
39045;DHT22;52192;52.002;5.956;2023-02-28T17:51:41;9.60;38.60
39045;DHT22;52192;52.002;5.956;2023-02-28T17:54:07;9.60;38.80
39045;DHT22;52192;52.002;5.956;2023-02-28T17:56:33;9.50;38.70
39045;DHT22;52192;52.002;5.956;2023-02-28T17:58:59;9.40;38.80
39045;DHT22;52192;52.002;5.956;2023-02-28T18:01:25;9.40;38.90
39045;DHT22;52192;52.002;5.956;2023-02-28T18:03:54;9.40;38.90
39045;DHT22;52192;52.002;5.956;2023-02-28T18:06:45;9.30;39.10
39045;DHT22;52192;52.002;5.956;2023-02-28T18:09:17;9.30;39.40
39045;DHT22;52192;52.002;5.956;2023-02-28T18:11:43;9.10;39.70
39045;DHT22;52192;52.002;5.956;2023-02-28T18:14:14;9.00;39.80
39045;DHT22;52192;52.002;5.956;2023-02-28T18:16:42;9.00;39.90
39045;DHT22;52192;52.002;5.956;2023-02-28T18:19:08;8.90;39.90
39045;DHT22;52192;52.002;5.956;2023-02-28T18:21:40;8.90;39.90
39045;DHT22;52192;52.002;5.956;2023-02-28T18:24:06;8.80;40.10
39045;DHT22;52192;52.002;5.956;2023-02-28T18:26:32;8.80;40.80
39045;DHT22;52192;52.002;5.956;2023-02-28T18:28:57;8.70;40.40